Sumner, Georgia
Current Conditions -  °F | °C
As of 2:10 AM on Wednesday 22 Oct 2014 (Local Time) from KTMA Reporting Station
Clear Clear  
Wind Chill: 56°   Ceiling: Unl
Heat Index: 56°   Visibility: 10mi
Dew Point: 53°   Wind: 0mph
Humidity: 89%   Direction: NA
Pressure: 29.99"   Gusts: NA
Location:  31.51°N, 83.74°W
Report Text: KTMA 220610Z AUTO 00000KT 10SM CLR 14/12 A2999 RMK AO2 T01350117
Loading
Personal Weather Stations






























Interactive Weather Map
Tropical Storm Tracking
New forecast layout! Learn more

10-Day Weather Forecast

Advertisements
Track Severe Weather on mobile